sensor_id;sensor_type;location;lat;lon;timestamp;P1;durP1;ratioP1;P2;durP2;ratioP2
6280;SDS011;3173;48.204;11.612;2023-06-19T19:28:01;8.07;;;5.43;;
6280;SDS011;3173;48.204;11.612;2023-06-19T19:30:27;6.70;;;5.10;;
6280;SDS011;3173;48.204;11.612;2023-06-19T19:32:53;11.13;;;5.73;;
6280;SDS011;3173;48.204;11.612;2023-06-19T19:35:19;9.37;;;5.90;;
6280;SDS011;3173;48.204;11.612;2023-06-19T19:37:46;7.93;;;4.63;;
6280;SDS011;3173;48.204;11.612;2023-06-19T19:40:12;7.30;;;5.10;;
6280;SDS011;3173;48.204;11.612;2023-06-19T19:42:38;7.13;;;5.10;;
6280;SDS011;3173;48.204;11.612;2023-06-19T19:45:04;12.70;;;5.70;;
6280;SDS011;3173;48.204;11.612;2023-06-19T19:47:30;7.87;;;5.60;;
6280;SDS011;3173;48.204;11.612;2023-06-19T19:49:56;7.80;;;5.13;;
6280;SDS011;3173;48.204;11.612;2023-06-19T19:52:22;8.30;;;5.17;;
6280;SDS011;3173;48.204;11.612;2023-06-19T19:54:47;9.47;;;5.60;;
6280;SDS011;3173;48.204;11.612;2023-06-19T19:57:13;7.17;;;5.70;;
6280;SDS011;3173;48.204;11.612;2023-06-19T19:59:39;8.03;;;5.37;;
6280;SDS011;3173;48.204;11.612;2023-06-19T20:02:05;8.13;;;5.07;;
6280;SDS011;3173;48.204;11.612;2023-06-19T20:04:35;9.80;;;5.40;;
6280;SDS011;3173;48.204;11.612;2023-06-19T20:07:05;8.60;;;5.80;;
6280;SDS011;3173;48.204;11.612;2023-06-19T20:09:31;9.13;;;5.40;;
6280;SDS011;3173;48.204;11.612;2023-06-19T20:11:57;7.30;;;6.07;;
6280;SDS011;3173;48.204;11.612;2023-06-19T20:14:23;6.90;;;6.00;;
6280;SDS011;3173;48.204;11.612;2023-06-19T20:16:49;9.77;;;6.63;;
6280;SDS011;3173;48.204;11.612;2023-06-19T20:19:15;8.10;;;6.30;;
6280;SDS011;3173;48.204;11.612;2023-06-19T20:21:41;8.50;;;7.10;;
6280;SDS011;3173;48.204;11.612;2023-06-19T20:24:07;9.27;;;7.60;;
6280;SDS011;3173;48.204;11.612;2023-06-19T20:26:33;13.00;;;8.33;;
6280;SDS011;3173;48.204;11.612;2023-06-19T20:28:59;16.57;;;7.27;;
6280;SDS011;3173;48.204;11.612;2023-06-19T20:31:25;11.77;;;7.70;;
6280;SDS011;3173;48.204;11.612;2023-06-19T20:33:51;8.47;;;7.50;;
6280;SDS011;3173;48.204;11.612;2023-06-19T20:36:18;13.60;;;7.53;;
6280;SDS011;3173;48.204;11.612;2023-06-19T20:38:44;8.50;;;7.20;;
6280;SDS011;3173;48.204;11.612;2023-06-19T20:41:11;9.90;;;7.07;;
6280;SDS011;3173;48.204;11.612;2023-06-19T20:43:40;9.30;;;8.00;;
6280;SDS011;3173;48.204;11.612;2023-06-19T20:46:09;10.17;;;7.33;;
6280;SDS011;3173;48.204;11.612;2023-06-19T20:48:36;13.93;;;8.40;;
6280;SDS011;3173;48.204;11.612;2023-06-19T20:51:02;10.17;;;8.07;;
6280;SDS011;3173;48.204;11.612;2023-06-19T20:53:28;10.77;;;8.17;;
6280;SDS011;3173;48.204;11.612;2023-06-19T20:55:55;8.83;;;7.90;;
6280;SDS011;3173;48.204;11.612;2023-06-19T20:58:21;11.77;;;7.90;;
6280;SDS011;3173;48.204;11.612;2023-06-19T21:00:51;10.70;;;8.03;;
6280;SDS011;3173;48.204;11.612;2023-06-19T21:03:17;15.43;;;8.97;;
6280;SDS011;3173;48.204;11.612;2023-06-19T21:05:45;11.80;;;7.57;;
6280;SDS011;3173;48.204;11.612;2023-06-19T21:08:12;9.37;;;8.03;;
6280;SDS011;3173;48.204;11.612;2023-06-19T21:10:38;12.77;;;8.47;;
6280;SDS011;3173;48.204;11.612;2023-06-19T21:13:08;11.70;;;8.57;;
6280;SDS011;3173;48.204;11.612;2023-06-19T21:15:37;12.00;;;8.50;;
6280;SDS011;3173;48.204;11.612;2023-06-19T21:18:03;11.00;;;8.40;;
6280;SDS011;3173;48.204;11.612;2023-06-19T21:20:29;10.30;;;7.50;;
6280;SDS011;3173;48.204;11.612;2023-06-19T21:22:55;9.60;;;8.50;;
6280;SDS011;3173;48.204;11.612;2023-06-19T21:25:23;12.83;;;8.20;;
6280;SDS011;3173;48.204;11.612;2023-06-19T21:27:49;15.97;;;8.10;;
6280;SDS011;3173;48.204;11.612;2023-06-19T21:30:15;10.27;;;7.80;;
6280;SDS011;3173;48.204;11.612;2023-06-19T21:32:41;10.70;;;8.27;;
6280;SDS011;3173;48.204;11.612;2023-06-19T21:35:07;11.40;;;7.90;;
6280;SDS011;3173;48.204;11.612;2023-06-19T21:37:34;11.90;;;7.40;;
6280;SDS011;3173;48.204;11.612;2023-06-19T21:40:00;10.13;;;7.27;;
6280;SDS011;3173;48.204;11.612;2023-06-19T21:42:28;15.30;;;6.40;;
6280;SDS011;3173;48.204;11.612;2023-06-19T21:44:54;8.70;;;6.50;;
6280;SDS011;3173;48.204;11.612;2023-06-19T21:47:20;5.60;;;4.30;;
6280;SDS011;3173;48.204;11.612;2023-06-19T21:49:46;6.07;;;3.30;;
6280;SDS011;3173;48.204;11.612;2023-06-19T21:52:12;4.93;;;3.07;;
6280;SDS011;3173;48.204;11.612;2023-06-19T21:54:38;10.30;;;2.80;;
6280;SDS011;3173;48.204;11.612;2023-06-19T21:57:04;5.20;;;2.90;;
6280;SDS011;3173;48.204;11.612;2023-06-19T21:59:30;2.57;;;2.03;;
6280;SDS011;3173;48.204;11.612;2023-06-19T22:01:57;4.07;;;3.27;;
6280;SDS011;3173;48.204;11.612;2023-06-19T22:04:23;5.23;;;2.53;;
6280;SDS011;3173;48.204;11.612;2023-06-19T22:06:49;9.20;;;2.20;;
6280;SDS011;3173;48.204;11.612;2023-06-19T22:09:15;3.43;;;1.97;;
6280;SDS011;3173;48.204;11.612;2023-06-19T22:11:41;6.50;;;2.20;;
6280;SDS011;3173;48.204;11.612;2023-06-19T22:14:07;6.53;;;1.90;;
6280;SDS011;3173;48.204;11.612;2023-06-19T22:16:33;15.93;;;2.43;;
6280;SDS011;3173;48.204;11.612;2023-06-19T22:18:59;5.57;;;2.53;;
6280;SDS011;3173;48.204;11.612;2023-06-19T22:21:27;3.10;;;1.57;;
6280;SDS011;3173;48.204;11.612;2023-06-19T22:23:53;3.10;;;1.70;;
6280;SDS011;3173;48.204;11.612;2023-06-19T22:26:19;3.90;;;2.40;;
6280;SDS011;3173;48.204;11.612;2023-06-19T22:28:45;5.23;;;2.63;;
6280;SDS011;3173;48.204;11.612;2023-06-19T22:31:11;4.13;;;2.37;;
6280;SDS011;3173;48.204;11.612;2023-06-19T22:33:37;3.00;;;2.30;;
6280;SDS011;3173;48.204;11.612;2023-06-19T22:36:03;13.27;;;2.60;;
6280;SDS011;3173;48.204;11.612;2023-06-19T22:38:29;4.10;;;2.57;;
6280;SDS011;3173;48.204;11.612;2023-06-19T22:40:55;13.63;;;2.37;;
6280;SDS011;3173;48.204;11.612;2023-06-19T22:43:21;6.63;;;3.13;;
6280;SDS011;3173;48.204;11.612;2023-06-19T22:45:47;5.07;;;2.73;;
6280;SDS011;3173;48.204;11.612;2023-06-19T22:48:14;5.03;;;2.37;;
6280;SDS011;3173;48.204;11.612;2023-06-19T22:50:43;3.80;;;2.40;;
6280;SDS011;3173;48.204;11.612;2023-06-19T22:53:10;4.03;;;2.73;;
6280;SDS011;3173;48.204;11.612;2023-06-19T22:55:36;2.90;;;2.17;;
6280;SDS011;3173;48.204;11.612;2023-06-19T22:58:02;3.90;;;2.73;;
6280;SDS011;3173;48.204;11.612;2023-06-19T23:00:28;4.80;;;2.70;;
6280;SDS011;3173;48.204;11.612;2023-06-19T23:02:54;3.70;;;2.67;;
6280;SDS011;3173;48.204;11.612;2023-06-19T23:05:21;3.80;;;3.10;;
6280;SDS011;3173;48.204;11.612;2023-06-19T23:07:47;5.20;;;2.80;;
6280;SDS011;3173;48.204;11.612;2023-06-19T23:10:13;3.10;;;2.37;;
6280;SDS011;3173;48.204;11.612;2023-06-19T23:12:40;5.77;;;3.10;;
6280;SDS011;3173;48.204;11.612;2023-06-19T23:15:06;5.43;;;3.10;;
6280;SDS011;3173;48.204;11.612;2023-06-19T23:17:32;5.23;;;3.10;;
6280;SDS011;3173;48.204;11.612;2023-06-19T23:19:58;8.03;;;3.13;;
6280;SDS011;3173;48.204;11.612;2023-06-19T23:22:25;7.63;;;3.40;;
6280;SDS011;3173;48.204;11.612;2023-06-19T23:24:51;5.87;;;3.30;;
6280;SDS011;3173;48.204;11.612;2023-06-19T23:27:17;4.83;;;2.97;;
6280;SDS011;3173;48.204;11.612;2023-06-19T23:29:44;4.10;;;2.90;;
6280;SDS011;3173;48.204;11.612;2023-06-19T23:32:10;5.47;;;3.73;;
6280;SDS011;3173;48.204;11.612;2023-06-19T23:34:36;4.93;;;3.30;;
6280;SDS011;3173;48.204;11.612;2023-06-19T23:37:02;5.30;;;3.57;;
6280;SDS011;3173;48.204;11.612;2023-06-19T23:39:29;5.87;;;3.33;;
6280;SDS011;3173;48.204;11.612;2023-06-19T23:41:55;5.80;;;3.10;;
6280;SDS011;3173;48.204;11.612;2023-06-19T23:44:21;8.00;;;3.70;;
6280;SDS011;3173;48.204;11.612;2023-06-19T23:46:47;5.67;;;4.03;;
6280;SDS011;3173;48.204;11.612;2023-06-19T23:49:13;4.40;;;3.60;;
6280;SDS011;3173;48.204;11.612;2023-06-19T23:51:39;5.30;;;3.37;;
6280;SDS011;3173;48.204;11.612;2023-06-19T23:54:05;5.27;;;3.73;;
6280;SDS011;3173;48.204;11.612;2023-06-19T23:56:31;4.43;;;3.50;;
6280;SDS011;3173;48.204;11.612;2023-06-19T23:58:58;4.23;;;3.30;;
